sensor_id;sensor_type;location;lat;lon;timestamp;P1;durP1;ratioP1;P2;durP2;ratioP2
70832;SDS011;71099;59.528;17.886;2023-08-06T00:01:11;7.95;;;4.10;;
70832;SDS011;71099;59.528;17.886;2023-08-06T00:03:37;6.75;;;3.95;;
70832;SDS011;71099;59.528;17.886;2023-08-06T00:06:04;9.13;;;4.07;;
70832;SDS011;71099;59.528;17.886;2023-08-06T00:08:30;7.78;;;3.90;;
70832;SDS011;71099;59.528;17.886;2023-08-06T00:10:55;6.75;;;4.22;;
70832;SDS011;71099;59.528;17.886;2023-08-06T00:13:21;5.97;;;4.30;;
70832;SDS011;71099;59.528;17.886;2023-08-06T00:15:46;6.57;;;3.67;;
70832;SDS011;71099;59.528;17.886;2023-08-06T00:18:12;8.63;;;3.55;;
70832;SDS011;71099;59.528;17.886;2023-08-06T00:20:40;10.10;;;4.38;;
70832;SDS011;71099;59.528;17.886;2023-08-06T00:23:06;6.20;;;4.28;;
70832;SDS011;71099;59.528;17.886;2023-08-06T00:25:32;5.32;;;3.42;;
70832;SDS011;71099;59.528;17.886;2023-08-06T00:27:57;6.38;;;4.22;;
70832;SDS011;71099;59.528;17.886;2023-08-06T00:30:23;9.70;;;4.72;;
70832;SDS011;71099;59.528;17.886;2023-08-06T00:32:48;7.55;;;4.15;;
70832;SDS011;71099;59.528;17.886;2023-08-06T00:35:14;7.93;;;4.47;;
70832;SDS011;71099;59.528;17.886;2023-08-06T00:37:39;7.68;;;4.15;;
70832;SDS011;71099;59.528;17.886;2023-08-06T00:40:06;4.88;;;4.00;;
70832;SDS011;71099;59.528;17.886;2023-08-06T00:42:32;7.15;;;4.43;;
70832;SDS011;71099;59.528;17.886;2023-08-06T00:44:57;8.48;;;4.32;;
70832;SDS011;71099;59.528;17.886;2023-08-06T00:47:23;11.30;;;4.40;;
70832;SDS011;71099;59.528;17.886;2023-08-06T00:49:49;10.40;;;4.00;;
70832;SDS011;71099;59.528;17.886;2023-08-06T00:52:14;9.07;;;4.20;;
70832;SDS011;71099;59.528;17.886;2023-08-06T00:54:40;5.90;;;4.18;;
70832;SDS011;71099;59.528;17.886;2023-08-06T00:57:06;7.22;;;4.13;;
70832;SDS011;71099;59.528;17.886;2023-08-06T00:59:33;7.55;;;4.18;;
70832;SDS011;71099;59.528;17.886;2023-08-06T01:01:59;8.98;;;4.75;;
70832;SDS011;71099;59.528;17.886;2023-08-06T01:04:24;6.57;;;4.30;;
70832;SDS011;71099;59.528;17.886;2023-08-06T01:15:02;6.43;;;4.10;;
70832;SDS011;71099;59.528;17.886;2023-08-06T01:17:36;5.57;;;3.40;;
70832;SDS011;71099;59.528;17.886;2023-08-06T01:20:03;9.50;;;5.32;;
70832;SDS011;71099;59.528;17.886;2023-08-06T01:22:28;7.88;;;4.60;;
70832;SDS011;71099;59.528;17.886;2023-08-06T01:24:54;8.85;;;4.72;;
70832;SDS011;71099;59.528;17.886;2023-08-06T01:27:33;7.70;;;4.45;;
70832;SDS011;71099;59.528;17.886;2023-08-06T01:32:34;4.97;;;3.40;;
70832;SDS011;71099;59.528;17.886;2023-08-06T01:35:03;4.90;;;3.53;;
70832;SDS011;71099;59.528;17.886;2023-08-06T01:37:29;8.25;;;5.43;;
70832;SDS011;71099;59.528;17.886;2023-08-06T01:39:55;9.48;;;4.35;;
70832;SDS011;71099;59.528;17.886;2023-08-06T01:42:20;7.20;;;4.20;;
70832;SDS011;71099;59.528;17.886;2023-08-06T01:44:46;10.13;;;4.72;;
70832;SDS011;71099;59.528;17.886;2023-08-06T01:47:11;9.95;;;5.03;;
70832;SDS011;71099;59.528;17.886;2023-08-06T01:49:37;9.88;;;4.63;;
70832;SDS011;71099;59.528;17.886;2023-08-06T01:52:02;5.93;;;3.88;;
70832;SDS011;71099;59.528;17.886;2023-08-06T01:54:28;7.47;;;4.50;;
70832;SDS011;71099;59.528;17.886;2023-08-06T01:56:53;5.63;;;4.32;;
70832;SDS011;71099;59.528;17.886;2023-08-06T01:59:19;5.00;;;4.50;;
70832;SDS011;71099;59.528;17.886;2023-08-06T02:01:44;5.80;;;4.07;;
70832;SDS011;71099;59.528;17.886;2023-08-06T02:04:10;7.18;;;3.92;;
70832;SDS011;71099;59.528;17.886;2023-08-06T02:06:35;6.13;;;4.72;;
70832;SDS011;71099;59.528;17.886;2023-08-06T02:09:01;8.02;;;4.75;;
70832;SDS011;71099;59.528;17.886;2023-08-06T02:11:26;7.40;;;4.43;;
70832;SDS011;71099;59.528;17.886;2023-08-06T02:13:52;4.90;;;3.42;;
70832;SDS011;71099;59.528;17.886;2023-08-06T02:16:17;7.03;;;4.82;;
70832;SDS011;71099;59.528;17.886;2023-08-06T02:18:42;9.48;;;4.63;;
70832;SDS011;71099;59.528;17.886;2023-08-06T02:21:08;4.60;;;4.03;;
70832;SDS011;71099;59.528;17.886;2023-08-06T02:23:33;10.38;;;4.47;;
70832;SDS011;71099;59.528;17.886;2023-08-06T02:26:03;6.88;;;4.40;;
70832;SDS011;71099;59.528;17.886;2023-08-06T02:28:31;7.75;;;4.70;;
70832;SDS011;71099;59.528;17.886;2023-08-06T02:30:57;7.95;;;4.57;;
70832;SDS011;71099;59.528;17.886;2023-08-06T02:33:23;11.13;;;4.65;;
70832;SDS011;71099;59.528;17.886;2023-08-06T02:35:48;4.18;;;3.72;;
70832;SDS011;71099;59.528;17.886;2023-08-06T02:38:13;7.80;;;4.65;;
70832;SDS011;71099;59.528;17.886;2023-08-06T02:40:45;7.07;;;3.92;;
70832;SDS011;71099;59.528;17.886;2023-08-06T02:43:11;12.23;;;5.30;;
70832;SDS011;71099;59.528;17.886;2023-08-06T02:45:37;7.85;;;4.50;;
70832;SDS011;71099;59.528;17.886;2023-08-06T02:48:02;9.50;;;5.55;;
70832;SDS011;71099;59.528;17.886;2023-08-06T02:50:28;7.55;;;4.05;;
70832;SDS011;71099;59.528;17.886;2023-08-06T02:52:53;6.57;;;4.07;;
70832;SDS011;71099;59.528;17.886;2023-08-06T02:55:19;8.48;;;4.80;;
70832;SDS011;71099;59.528;17.886;2023-08-06T02:57:44;6.65;;;5.05;;
70832;SDS011;71099;59.528;17.886;2023-08-06T03:00:10;8.07;;;4.45;;
70832;SDS011;71099;59.528;17.886;2023-08-06T03:02:36;7.70;;;5.47;;
70832;SDS011;71099;59.528;17.886;2023-08-06T03:05:02;8.98;;;5.10;;
70832;SDS011;71099;59.528;17.886;2023-08-06T03:07:28;10.52;;;5.10;;
70832;SDS011;71099;59.528;17.886;2023-08-06T03:09:53;8.65;;;5.00;;
70832;SDS011;71099;59.528;17.886;2023-08-06T03:12:19;6.97;;;3.80;;
70832;SDS011;71099;59.528;17.886;2023-08-06T03:14:44;10.02;;;4.47;;
70832;SDS011;71099;59.528;17.886;2023-08-06T03:17:10;6.93;;;4.15;;
70832;SDS011;71099;59.528;17.886;2023-08-06T03:19:35;7.70;;;4.10;;
70832;SDS011;71099;59.528;17.886;2023-08-06T03:22:01;9.70;;;4.25;;
70832;SDS011;71099;59.528;17.886;2023-08-06T03:24:26;4.80;;;4.07;;
70832;SDS011;71099;59.528;17.886;2023-08-06T03:26:51;6.40;;;4.35;;
70832;SDS011;71099;59.528;17.886;2023-08-06T03:29:17;11.90;;;4.28;;
70832;SDS011;71099;59.528;17.886;2023-08-06T03:31:42;6.22;;;3.63;;
70832;SDS011;71099;59.528;17.886;2023-08-06T03:34:08;8.27;;;4.25;;
70832;SDS011;71099;59.528;17.886;2023-08-06T03:36:33;6.47;;;4.15;;
70832;SDS011;71099;59.528;17.886;2023-08-06T03:38:58;6.18;;;3.80;;
70832;SDS011;71099;59.528;17.886;2023-08-06T03:41:24;8.40;;;4.50;;
70832;SDS011;71099;59.528;17.886;2023-08-06T03:43:49;6.95;;;4.13;;
70832;SDS011;71099;59.528;17.886;2023-08-06T03:46:15;6.68;;;4.50;;
70832;SDS011;71099;59.528;17.886;2023-08-06T03:48:40;10.77;;;4.80;;
70832;SDS011;71099;59.528;17.886;2023-08-06T03:51:05;8.13;;;4.78;;
70832;SDS011;71099;59.528;17.886;2023-08-06T03:53:31;6.22;;;4.25;;
70832;SDS011;71099;59.528;17.886;2023-08-06T03:55:56;5.30;;;4.10;;
70832;SDS011;71099;59.528;17.886;2023-08-06T03:58:25;6.60;;;4.13;;
70832;SDS011;71099;59.528;17.886;2023-08-06T04:00:57;8.35;;;4.30;;
70832;SDS011;71099;59.528;17.886;2023-08-06T04:03:26;4.65;;;4.15;;
70832;SDS011;71099;59.528;17.886;2023-08-06T04:05:52;6.20;;;3.58;;
70832;SDS011;71099;59.528;17.886;2023-08-06T04:08:17;6.82;;;3.55;;
70832;SDS011;71099;59.528;17.886;2023-08-06T04:10:43;6.05;;;4.25;;
70832;SDS011;71099;59.528;17.886;2023-08-06T04:13:08;7.53;;;3.88;;
70832;SDS011;71099;59.528;17.886;2023-08-06T04:15:34;7.18;;;4.90;;
70832;SDS011;71099;59.528;17.886;2023-08-06T04:17:59;11.82;;;5.25;;
70832;SDS011;71099;59.528;17.886;2023-08-06T04:20:25;5.93;;;4.65;;
70832;SDS011;71099;59.528;17.886;2023-08-06T04:22:50;7.30;;;4.65;;
70832;SDS011;71099;59.528;17.886;2023-08-06T04:25:16;7.45;;;4.40;;
70832;SDS011;71099;59.528;17.886;2023-08-06T04:27:46;5.03;;;4.05;;
70832;SDS011;71099;59.528;17.886;2023-08-06T04:30:12;7.95;;;4.50;;
70832;SDS011;71099;59.528;17.886;2023-08-06T04:32:38;8.82;;;4.55;;
70832;SDS011;71099;59.528;17.886;2023-08-06T04:35:04;7.32;;;4.22;;
70832;SDS011;71099;59.528;17.886;2023-08-06T04:37:30;5.82;;;4.97;;
70832;SDS011;71099;59.528;17.886;2023-08-06T04:39:55;6.88;;;5.05;;
70832;SDS011;71099;59.528;17.886;2023-08-06T04:42:21;4.63;;;4.18;;
70832;SDS011;71099;59.528;17.886;2023-08-06T04:44:46;6.72;;;4.07;;
70832;SDS011;71099;59.528;17.886;2023-08-06T04:47:12;4.43;;;3.90;;
70832;SDS011;71099;59.528;17.886;2023-08-06T04:49:37;6.65;;;4.95;;
70832;SDS011;71099;59.528;17.886;2023-08-06T04:52:02;10.13;;;5.07;;
70832;SDS011;71099;59.528;17.886;2023-08-06T04:54:28;5.38;;;4.07;;
70832;SDS011;71099;59.528;17.886;2023-08-06T04:56:54;6.43;;;5.32;;
70832;SDS011;71099;59.528;17.886;2023-08-06T04:59:19;7.07;;;4.57;;
70832;SDS011;71099;59.528;17.886;2023-08-06T05:01:45;11.57;;;4.85;;
70832;SDS011;71099;59.528;17.886;2023-08-06T05:04:10;7.45;;;4.90;;
70832;SDS011;71099;59.528;17.886;2023-08-06T05:06:36;9.63;;;4.93;;
70832;SDS011;71099;59.528;17.886;2023-08-06T05:09:03;7.65;;;4.43;;
70832;SDS011;71099;59.528;17.886;2023-08-06T05:11:29;8.27;;;4.93;;
70832;SDS011;71099;59.528;17.886;2023-08-06T05:13:55;7.15;;;4.65;;
70832;SDS011;71099;59.528;17.886;2023-08-06T05:16:20;7.32;;;4.22;;
70832;SDS011;71099;59.528;17.886;2023-08-06T05:18:46;5.50;;;4.22;;
70832;SDS011;71099;59.528;17.886;2023-08-06T05:21:11;6.93;;;4.80;;
70832;SDS011;71099;59.528;17.886;2023-08-06T05:23:36;8.65;;;5.30;;
70832;SDS011;71099;59.528;17.886;2023-08-06T05:26:02;9.57;;;4.32;;
70832;SDS011;71099;59.528;17.886;2023-08-06T05:28:27;6.05;;;4.18;;
70832;SDS011;71099;59.528;17.886;2023-08-06T05:30:53;5.35;;;4.45;;
70832;SDS011;71099;59.528;17.886;2023-08-06T05:33:18;8.73;;;5.20;;
70832;SDS011;71099;59.528;17.886;2023-08-06T05:35:44;9.02;;;4.82;;
70832;SDS011;71099;59.528;17.886;2023-08-06T05:38:09;7.35;;;5.38;;
70832;SDS011;71099;59.528;17.886;2023-08-06T05:40:34;8.88;;;4.43;;
70832;SDS011;71099;59.528;17.886;2023-08-06T05:43:00;8.63;;;3.83;;
70832;SDS011;71099;59.528;17.886;2023-08-06T05:45:26;7.07;;;4.80;;
70832;SDS011;71099;59.528;17.886;2023-08-06T05:47:51;10.98;;;4.97;;
70832;SDS011;71099;59.528;17.886;2023-08-06T05:50:19;7.68;;;3.92;;
70832;SDS011;71099;59.528;17.886;2023-08-06T05:52:44;8.10;;;3.42;;
70832;SDS011;71099;59.528;17.886;2023-08-06T05:55:09;8.05;;;3.78;;
70832;SDS011;71099;59.528;17.886;2023-08-06T05:57:35;7.80;;;4.45;;
70832;SDS011;71099;59.528;17.886;2023-08-06T06:00:01;7.40;;;3.05;;
70832;SDS011;71099;59.528;17.886;2023-08-06T06:02:27;8.30;;;3.70;;
70832;SDS011;71099;59.528;17.886;2023-08-06T06:04:52;7.05;;;3.25;;
70832;SDS011;71099;59.528;17.886;2023-08-06T06:07:18;12.50;;;3.95;;
70832;SDS011;71099;59.528;17.886;2023-08-06T06:09:43;7.88;;;3.72;;
70832;SDS011;71099;59.528;17.886;2023-08-06T06:12:09;3.78;;;2.80;;
70832;SDS011;71099;59.528;17.886;2023-08-06T06:14:35;5.05;;;3.38;;
70832;SDS011;71099;59.528;17.886;2023-08-06T06:17:00;6.47;;;3.45;;
70832;SDS011;71099;59.528;17.886;2023-08-06T06:19:26;4.38;;;3.38;;
70832;SDS011;71099;59.528;17.886;2023-08-06T06:21:51;4.63;;;3.65;;
70832;SDS011;71099;59.528;17.886;2023-08-06T06:24:18;8.65;;;4.60;;
70832;SDS011;71099;59.528;17.886;2023-08-06T06:26:43;5.68;;;3.53;;
70832;SDS011;71099;59.528;17.886;2023-08-06T06:29:09;8.57;;;3.67;;
70832;SDS011;71099;59.528;17.886;2023-08-06T06:31:34;5.72;;;3.80;;
70832;SDS011;71099;59.528;17.886;2023-08-06T06:34:00;6.13;;;3.70;;
70832;SDS011;71099;59.528;17.886;2023-08-06T06:36:26;6.75;;;3.85;;
70832;SDS011;71099;59.528;17.886;2023-08-06T06:38:51;4.55;;;3.15;;
70832;SDS011;71099;59.528;17.886;2023-08-06T06:41:16;8.32;;;3.95;;
70832;SDS011;71099;59.528;17.886;2023-08-06T06:43:42;8.52;;;4.45;;
70832;SDS011;71099;59.528;17.886;2023-08-06T06:46:07;10.50;;;4.60;;
70832;SDS011;71099;59.528;17.886;2023-08-06T06:48:33;8.55;;;4.82;;
70832;SDS011;71099;59.528;17.886;2023-08-06T06:50:58;7.68;;;3.83;;
70832;SDS011;71099;59.528;17.886;2023-08-06T06:53:24;4.75;;;2.65;;
70832;SDS011;71099;59.528;17.886;2023-08-06T06:55:56;3.00;;;2.70;;
70832;SDS011;71099;59.528;17.886;2023-08-06T06:58:26;7.28;;;2.60;;
70832;SDS011;71099;59.528;17.886;2023-08-06T07:00:51;5.00;;;3.08;;
70832;SDS011;71099;59.528;17.886;2023-08-06T07:03:17;2.53;;;2.30;;
70832;SDS011;71099;59.528;17.886;2023-08-06T07:05:43;5.80;;;2.70;;
70832;SDS011;71099;59.528;17.886;2023-08-06T07:08:09;6.43;;;2.80;;
70832;SDS011;71099;59.528;17.886;2023-08-06T07:10:35;2.47;;;2.22;;
70832;SDS011;71099;59.528;17.886;2023-08-06T07:13:00;4.97;;;3.25;;
70832;SDS011;71099;59.528;17.886;2023-08-06T07:15:25;4.38;;;2.65;;
70832;SDS011;71099;59.528;17.886;2023-08-06T07:17:51;4.70;;;2.65;;
70832;SDS011;71099;59.528;17.886;2023-08-06T07:20:16;4.97;;;2.28;;
70832;SDS011;71099;59.528;17.886;2023-08-06T07:22:42;3.92;;;2.33;;
70832;SDS011;71099;59.528;17.886;2023-08-06T07:25:08;2.95;;;1.77;;
70832;SDS011;71099;59.528;17.886;2023-08-06T07:27:33;3.63;;;2.20;;
70832;SDS011;71099;59.528;17.886;2023-08-06T07:29:59;3.53;;;2.10;;
70832;SDS011;71099;59.528;17.886;2023-08-06T07:32:25;3.13;;;2.05;;
70832;SDS011;71099;59.528;17.886;2023-08-06T07:34:52;3.67;;;2.40;;
70832;SDS011;71099;59.528;17.886;2023-08-06T07:37:22;3.92;;;2.20;;
70832;SDS011;71099;59.528;17.886;2023-08-06T07:39:48;2.70;;;1.90;;
70832;SDS011;71099;59.528;17.886;2023-08-06T07:42:13;3.15;;;2.10;;
70832;SDS011;71099;59.528;17.886;2023-08-06T07:44:39;2.60;;;1.77;;
70832;SDS011;71099;59.528;17.886;2023-08-06T07:47:04;2.35;;;1.88;;
70832;SDS011;71099;59.528;17.886;2023-08-06T07:49:30;4.10;;;1.88;;
70832;SDS011;71099;59.528;17.886;2023-08-06T07:51:55;4.03;;;2.00;;
70832;SDS011;71099;59.528;17.886;2023-08-06T07:54:21;5.82;;;2.08;;
70832;SDS011;71099;59.528;17.886;2023-08-06T07:56:47;3.40;;;2.40;;
70832;SDS011;71099;59.528;17.886;2023-08-06T07:59:12;5.80;;;2.10;;
70832;SDS011;71099;59.528;17.886;2023-08-06T08:01:38;3.33;;;1.98;;
70832;SDS011;71099;59.528;17.886;2023-08-06T08:04:04;4.93;;;2.58;;
70832;SDS011;71099;59.528;17.886;2023-08-06T08:06:30;2.58;;;1.92;;
70832;SDS011;71099;59.528;17.886;2023-08-06T08:08:55;3.83;;;1.80;;
70832;SDS011;71099;59.528;17.886;2023-08-06T08:11:21;4.35;;;1.77;;
70832;SDS011;71099;59.528;17.886;2023-08-06T08:13:46;2.30;;;1.70;;
70832;SDS011;71099;59.528;17.886;2023-08-06T08:16:11;3.75;;;1.80;;
70832;SDS011;71099;59.528;17.886;2023-08-06T08:18:37;2.92;;;1.73;;
70832;SDS011;71099;59.528;17.886;2023-08-06T08:21:02;3.92;;;2.22;;
70832;SDS011;71099;59.528;17.886;2023-08-06T08:23:28;4.18;;;2.45;;
70832;SDS011;71099;59.528;17.886;2023-08-06T08:25:53;2.55;;;1.80;;
70832;SDS011;71099;59.528;17.886;2023-08-06T08:28:19;3.50;;;1.90;;
70832;SDS011;71099;59.528;17.886;2023-08-06T08:30:45;4.30;;;1.88;;
70832;SDS011;71099;59.528;17.886;2023-08-06T08:33:10;2.65;;;1.70;;
70832;SDS011;71099;59.528;17.886;2023-08-06T08:35:36;1.83;;;1.45;;
70832;SDS011;71099;59.528;17.886;2023-08-06T08:38:02;3.58;;;1.75;;
70832;SDS011;71099;59.528;17.886;2023-08-06T08:40:30;3.20;;;1.35;;
70832;SDS011;71099;59.528;17.886;2023-08-06T08:42:58;2.08;;;1.40;;
70832;SDS011;71099;59.528;17.886;2023-08-06T08:45:24;4.55;;;1.60;;
70832;SDS011;71099;59.528;17.886;2023-08-06T08:47:53;2.42;;;1.35;;
70832;SDS011;71099;59.528;17.886;2023-08-06T08:50:19;3.65;;;1.45;;
70832;SDS011;71099;59.528;17.886;2023-08-06T08:52:45;3.28;;;1.67;;
70832;SDS011;71099;59.528;17.886;2023-08-06T08:55:11;2.53;;;1.77;;
70832;SDS011;71099;59.528;17.886;2023-08-06T08:57:39;3.05;;;1.75;;
70832;SDS011;71099;59.528;17.886;2023-08-06T09:00:04;4.05;;;1.95;;
70832;SDS011;71099;59.528;17.886;2023-08-06T09:02:30;4.78;;;2.05;;
70832;SDS011;71099;59.528;17.886;2023-08-06T09:04:58;2.10;;;1.90;;
70832;SDS011;71099;59.528;17.886;2023-08-06T09:07:29;3.60;;;2.08;;
70832;SDS011;71099;59.528;17.886;2023-08-06T09:10:06;2.78;;;1.83;;
70832;SDS011;71099;59.528;17.886;2023-08-06T09:12:35;6.82;;;1.90;;
70832;SDS011;71099;59.528;17.886;2023-08-06T09:15:00;2.72;;;2.10;;
70832;SDS011;71099;59.528;17.886;2023-08-06T09:17:28;3.88;;;1.85;;
70832;SDS011;71099;59.528;17.886;2023-08-06T09:19:54;3.88;;;2.03;;
70832;SDS011;71099;59.528;17.886;2023-08-06T09:22:19;4.28;;;2.33;;
70832;SDS011;71099;59.528;17.886;2023-08-06T09:24:45;6.15;;;1.83;;
70832;SDS011;71099;59.528;17.886;2023-08-06T09:27:14;5.35;;;2.28;;
70832;SDS011;71099;59.528;17.886;2023-08-06T09:29:43;6.13;;;2.53;;
70832;SDS011;71099;59.528;17.886;2023-08-06T09:32:10;3.80;;;2.13;;
70832;SDS011;71099;59.528;17.886;2023-08-06T09:34:41;4.88;;;2.00;;
70832;SDS011;71099;59.528;17.886;2023-08-06T09:37:08;3.20;;;2.10;;
70832;SDS011;71099;59.528;17.886;2023-08-06T09:39:35;5.35;;;2.20;;
70832;SDS011;71099;59.528;17.886;2023-08-06T09:42:01;4.88;;;1.92;;
70832;SDS011;71099;59.528;17.886;2023-08-06T09:44:31;3.40;;;2.10;;
70832;SDS011;71099;59.528;17.886;2023-08-06T09:46:58;2.90;;;1.83;;
70832;SDS011;71099;59.528;17.886;2023-08-06T09:49:25;7.03;;;2.55;;
70832;SDS011;71099;59.528;17.886;2023-08-06T09:51:53;5.53;;;2.47;;
70832;SDS011;71099;59.528;17.886;2023-08-06T09:54:23;3.40;;;2.10;;
70832;SDS011;71099;59.528;17.886;2023-08-06T09:56:51;3.90;;;2.42;;
70832;SDS011;71099;59.528;17.886;2023-08-06T09:59:17;4.65;;;2.05;;
70832;SDS011;71099;59.528;17.886;2023-08-06T10:01:44;7.50;;;2.28;;
70832;SDS011;71099;59.528;17.886;2023-08-06T10:04:11;4.10;;;2.38;;
70832;SDS011;71099;59.528;17.886;2023-08-06T10:06:40;3.63;;;2.30;;
70832;SDS011;71099;59.528;17.886;2023-08-06T10:09:07;5.18;;;1.58;;
70832;SDS011;71099;59.528;17.886;2023-08-06T10:11:34;6.07;;;1.90;;
70832;SDS011;71099;59.528;17.886;2023-08-06T10:16:42;6.45;;;2.47;;
70832;SDS011;71099;59.528;17.886;2023-08-06T10:19:09;6.47;;;2.30;;
70832;SDS011;71099;59.528;17.886;2023-08-06T10:21:39;3.58;;;2.50;;
70832;SDS011;71099;59.528;17.886;2023-08-06T10:24:07;7.13;;;2.35;;
70832;SDS011;71099;59.528;17.886;2023-08-06T10:26:36;5.00;;;2.20;;
70832;SDS011;71099;59.528;17.886;2023-08-06T10:29:01;4.95;;;2.88;;
70832;SDS011;71099;59.528;17.886;2023-08-06T10:31:54;4.35;;;2.55;;
70832;SDS011;71099;59.528;17.886;2023-08-06T10:34:20;6.65;;;3.00;;
70832;SDS011;71099;59.528;17.886;2023-08-06T10:36:46;3.75;;;1.75;;
70832;SDS011;71099;59.528;17.886;2023-08-06T10:39:15;4.38;;;2.38;;
70832;SDS011;71099;59.528;17.886;2023-08-06T10:41:42;9.02;;;2.72;;
70832;SDS011;71099;59.528;17.886;2023-08-06T10:44:09;5.57;;;2.03;;
70832;SDS011;71099;59.528;17.886;2023-08-06T10:46:35;3.58;;;2.13;;
70832;SDS011;71099;59.528;17.886;2023-08-06T10:49:01;6.00;;;2.25;;
70832;SDS011;71099;59.528;17.886;2023-08-06T10:51:27;4.35;;;2.30;;
70832;SDS011;71099;59.528;17.886;2023-08-06T10:53:53;7.32;;;2.53;;
70832;SDS011;71099;59.528;17.886;2023-08-06T10:56:23;4.63;;;2.40;;
70832;SDS011;71099;59.528;17.886;2023-08-06T10:58:51;9.32;;;2.60;;
70832;SDS011;71099;59.528;17.886;2023-08-06T11:01:18;5.28;;;2.45;;
70832;SDS011;71099;59.528;17.886;2023-08-06T11:03:45;4.32;;;2.30;;
70832;SDS011;71099;59.528;17.886;2023-08-06T11:06:16;6.18;;;2.85;;
70832;SDS011;71099;59.528;17.886;2023-08-06T11:08:49;7.28;;;2.70;;
70832;SDS011;71099;59.528;17.886;2023-08-06T11:11:16;6.45;;;3.17;;
70832;SDS011;71099;59.528;17.886;2023-08-06T11:13:43;6.50;;;2.42;;
70832;SDS011;71099;59.528;17.886;2023-08-06T11:16:11;8.93;;;2.95;;
70832;SDS011;71099;59.528;17.886;2023-08-06T11:18:39;6.53;;;2.60;;
70832;SDS011;71099;59.528;17.886;2023-08-06T11:21:05;8.13;;;2.65;;
70832;SDS011;71099;59.528;17.886;2023-08-06T11:23:30;6.32;;;2.65;;
70832;SDS011;71099;59.528;17.886;2023-08-06T11:25:56;8.90;;;2.75;;
70832;SDS011;71099;59.528;17.886;2023-08-06T11:28:23;6.28;;;3.20;;
70832;SDS011;71099;59.528;17.886;2023-08-06T11:30:52;6.68;;;2.88;;
70832;SDS011;71099;59.528;17.886;2023-08-06T11:33:21;6.97;;;2.90;;
70832;SDS011;71099;59.528;17.886;2023-08-06T11:35:50;5.13;;;3.20;;
70832;SDS011;71099;59.528;17.886;2023-08-06T11:38:16;7.22;;;3.22;;
70832;SDS011;71099;59.528;17.886;2023-08-06T11:40:46;8.07;;;3.40;;
70832;SDS011;71099;59.528;17.886;2023-08-06T11:43:12;13.07;;;3.65;;
70832;SDS011;71099;59.528;17.886;2023-08-06T11:45:39;9.05;;;3.40;;
70832;SDS011;71099;59.528;17.886;2023-08-06T11:48:05;9.50;;;4.78;;
70832;SDS011;71099;59.528;17.886;2023-08-06T11:50:35;9.40;;;3.75;;
70832;SDS011;71099;59.528;17.886;2023-08-06T11:53:02;6.72;;;3.97;;
70832;SDS011;71099;59.528;17.886;2023-08-06T11:55:28;8.75;;;4.03;;
70832;SDS011;71099;59.528;17.886;2023-08-06T11:57:54;7.57;;;3.60;;
70832;SDS011;71099;59.528;17.886;2023-08-06T12:00:20;6.07;;;3.22;;
70832;SDS011;71099;59.528;17.886;2023-08-06T12:02:48;7.65;;;3.58;;
70832;SDS011;71099;59.528;17.886;2023-08-06T12:05:16;7.13;;;3.30;;
70832;SDS011;71099;59.528;17.886;2023-08-06T12:07:53;5.35;;;3.60;;
70832;SDS011;71099;59.528;17.886;2023-08-06T12:10:22;8.50;;;4.13;;
70832;SDS011;71099;59.528;17.886;2023-08-06T12:12:49;8.55;;;4.10;;
70832;SDS011;71099;59.528;17.886;2023-08-06T12:15:15;10.98;;;4.22;;
70832;SDS011;71099;59.528;17.886;2023-08-06T12:17:41;8.90;;;4.53;;
70832;SDS011;71099;59.528;17.886;2023-08-06T12:20:06;7.90;;;4.15;;
70832;SDS011;71099;59.528;17.886;2023-08-06T12:22:32;9.60;;;4.25;;
70832;SDS011;71099;59.528;17.886;2023-08-06T12:25:02;6.97;;;3.83;;
70832;SDS011;71099;59.528;17.886;2023-08-06T12:27:31;9.63;;;4.82;;
70832;SDS011;71099;59.528;17.886;2023-08-06T12:29:57;7.30;;;4.68;;
70832;SDS011;71099;59.528;17.886;2023-08-06T12:32:22;8.20;;;4.43;;
70832;SDS011;71099;59.528;17.886;2023-08-06T12:34:48;9.57;;;4.38;;
70832;SDS011;71099;59.528;17.886;2023-08-06T12:37:13;8.75;;;4.30;;
70832;SDS011;71099;59.528;17.886;2023-08-06T12:39:38;7.38;;;4.50;;
70832;SDS011;71099;59.528;17.886;2023-08-06T12:42:04;10.95;;;4.75;;
70832;SDS011;71099;59.528;17.886;2023-08-06T12:44:31;13.85;;;4.82;;
70832;SDS011;71099;59.528;17.886;2023-08-06T12:46:57;10.50;;;4.88;;
70832;SDS011;71099;59.528;17.886;2023-08-06T12:49:22;8.15;;;4.88;;
70832;SDS011;71099;59.528;17.886;2023-08-06T12:51:51;7.60;;;4.65;;
70832;SDS011;71099;59.528;17.886;2023-08-06T12:54:17;8.93;;;5.05;;
70832;SDS011;71099;59.528;17.886;2023-08-06T12:56:43;9.48;;;4.90;;
70832;SDS011;71099;59.528;17.886;2023-08-06T12:59:09;12.82;;;5.68;;
70832;SDS011;71099;59.528;17.886;2023-08-06T13:01:35;9.02;;;5.85;;
70832;SDS011;71099;59.528;17.886;2023-08-06T13:04:02;8.40;;;5.35;;
70832;SDS011;71099;59.528;17.886;2023-08-06T13:06:27;11.65;;;5.55;;
70832;SDS011;71099;59.528;17.886;2023-08-06T13:08:53;12.95;;;6.80;;
70832;SDS011;71099;59.528;17.886;2023-08-06T13:11:18;8.98;;;5.43;;
70832;SDS011;71099;59.528;17.886;2023-08-06T13:13:44;9.88;;;6.43;;
70832;SDS011;71099;59.528;17.886;2023-08-06T13:16:10;10.35;;;5.90;;
70832;SDS011;71099;59.528;17.886;2023-08-06T13:18:35;9.30;;;6.78;;
70832;SDS011;71099;59.528;17.886;2023-08-06T13:21:01;15.23;;;7.30;;
70832;SDS011;71099;59.528;17.886;2023-08-06T13:23:26;12.77;;;7.78;;
70832;SDS011;71099;59.528;17.886;2023-08-06T13:25:51;12.98;;;7.22;;
70832;SDS011;71099;59.528;17.886;2023-08-06T13:28:17;13.13;;;7.78;;
70832;SDS011;71099;59.528;17.886;2023-08-06T13:30:42;10.45;;;7.68;;
70832;SDS011;71099;59.528;17.886;2023-08-06T13:33:08;13.88;;;7.75;;
70832;SDS011;71099;59.528;17.886;2023-08-06T13:35:34;9.63;;;7.68;;
70832;SDS011;71099;59.528;17.886;2023-08-06T13:38:00;19.20;;;9.18;;
70832;SDS011;71099;59.528;17.886;2023-08-06T13:40:27;9.85;;;6.75;;
70832;SDS011;71099;59.528;17.886;2023-08-06T13:42:53;12.65;;;8.10;;
70832;SDS011;71099;59.528;17.886;2023-08-06T13:45:18;10.30;;;7.93;;
70832;SDS011;71099;59.528;17.886;2023-08-06T13:47:44;13.90;;;7.05;;
70832;SDS011;71099;59.528;17.886;2023-08-06T13:50:09;11.05;;;7.25;;
70832;SDS011;71099;59.528;17.886;2023-08-06T13:52:35;8.80;;;7.07;;
70832;SDS011;71099;59.528;17.886;2023-08-06T13:55:01;14.20;;;7.35;;
70832;SDS011;71099;59.528;17.886;2023-08-06T13:57:26;10.90;;;6.82;;
70832;SDS011;71099;59.528;17.886;2023-08-06T13:59:51;8.23;;;7.40;;
70832;SDS011;71099;59.528;17.886;2023-08-06T14:02:17;15.88;;;7.72;;
70832;SDS011;71099;59.528;17.886;2023-08-06T14:04:42;18.10;;;7.32;;
70832;SDS011;71099;59.528;17.886;2023-08-06T14:07:08;8.60;;;6.45;;
70832;SDS011;71099;59.528;17.886;2023-08-06T14:09:33;11.88;;;7.18;;
70832;SDS011;71099;59.528;17.886;2023-08-06T14:11:59;11.88;;;7.50;;
70832;SDS011;71099;59.528;17.886;2023-08-06T14:14:25;8.25;;;6.15;;
70832;SDS011;71099;59.528;17.886;2023-08-06T14:16:53;9.65;;;6.65;;
70832;SDS011;71099;59.528;17.886;2023-08-06T14:19:19;10.70;;;6.45;;
70832;SDS011;71099;59.528;17.886;2023-08-06T14:21:45;9.20;;;7.13;;
70832;SDS011;71099;59.528;17.886;2023-08-06T14:24:10;10.90;;;6.82;;
70832;SDS011;71099;59.528;17.886;2023-08-06T14:26:36;12.98;;;8.23;;
70832;SDS011;71099;59.528;17.886;2023-08-06T14:29:02;7.72;;;6.57;;
70832;SDS011;71099;59.528;17.886;2023-08-06T14:31:28;13.27;;;7.63;;
70832;SDS011;71099;59.528;17.886;2023-08-06T14:33:53;8.68;;;7.10;;
70832;SDS011;71099;59.528;17.886;2023-08-06T14:36:19;11.45;;;7.18;;
70832;SDS011;71099;59.528;17.886;2023-08-06T14:38:44;11.02;;;6.57;;
70832;SDS011;71099;59.528;17.886;2023-08-06T14:41:10;10.63;;;7.68;;